sensor_id;sensor_type;location;lat;lon;timestamp;P1;durP1;ratioP1;P2;durP2;ratioP2
53285;SDS011;39171;45.550;12.074;2022-08-01T00:05:10;0.85;;;0.70;;
53285;SDS011;39171;45.550;12.074;2022-08-01T00:11:12;1.13;;;0.80;;
53285;SDS011;39171;45.550;12.074;2022-08-01T00:17:14;1.00;;;0.70;;
53285;SDS011;39171;45.550;12.074;2022-08-01T00:23:16;0.93;;;0.80;;
53285;SDS011;39171;45.550;12.074;2022-08-01T00:29:17;1.55;;;1.10;;
53285;SDS011;39171;45.550;12.074;2022-08-01T00:35:19;1.05;;;0.80;;
53285;SDS011;39171;45.550;12.074;2022-08-01T00:41:20;1.10;;;0.90;;
53285;SDS011;39171;45.550;12.074;2022-08-01T00:47:22;1.17;;;0.90;;
53285;SDS011;39171;45.550;12.074;2022-08-01T00:53:23;1.27;;;0.90;;
53285;SDS011;39171;45.550;12.074;2022-08-01T00:59:25;1.40;;;0.90;;
53285;SDS011;39171;45.550;12.074;2022-08-01T01:05:27;1.67;;;1.10;;
53285;SDS011;39171;45.550;12.074;2022-08-01T01:11:35;1.00;;;0.90;;
53285;SDS011;39171;45.550;12.074;2022-08-01T01:30:46;1.52;;;1.23;;
53285;SDS011;39171;45.550;12.074;2022-08-01T01:36:52;1.42;;;1.10;;
53285;SDS011;39171;45.550;12.074;2022-08-01T01:42:56;1.38;;;1.20;;
53285;SDS011;39171;45.550;12.074;2022-08-01T01:48:58;1.63;;;1.20;;
53285;SDS011;39171;45.550;12.074;2022-08-01T01:55:01;1.60;;;1.30;;
53285;SDS011;39171;45.550;12.074;2022-08-01T02:01:06;1.40;;;1.20;;
53285;SDS011;39171;45.550;12.074;2022-08-01T02:07:10;1.70;;;1.45;;
53285;SDS011;39171;45.550;12.074;2022-08-01T02:13:14;2.00;;;1.50;;
53285;SDS011;39171;45.550;12.074;2022-08-01T02:19:17;1.85;;;1.50;;
53285;SDS011;39171;45.550;12.074;2022-08-01T02:25:22;1.80;;;1.50;;
53285;SDS011;39171;45.550;12.074;2022-08-01T02:31:35;1.67;;;1.58;;
53285;SDS011;39171;45.550;12.074;2022-08-01T02:37:39;2.22;;;1.50;;
53285;SDS011;39171;45.550;12.074;2022-08-01T02:43:45;2.20;;;1.83;;
53285;SDS011;39171;45.550;12.074;2022-08-01T02:49:50;2.00;;;1.67;;
53285;SDS011;39171;45.550;12.074;2022-08-01T02:55:53;2.10;;;1.80;;
53285;SDS011;39171;45.550;12.074;2022-08-01T03:01:56;2.13;;;1.67;;
53285;SDS011;39171;45.550;12.074;2022-08-01T03:07:59;2.10;;;1.80;;
53285;SDS011;39171;45.550;12.074;2022-08-01T03:14:03;2.03;;;1.65;;
53285;SDS011;39171;45.550;12.074;2022-08-01T03:20:08;3.08;;;1.80;;
53285;SDS011;39171;45.550;12.074;2022-08-01T03:26:14;2.05;;;1.75;;
53285;SDS011;39171;45.550;12.074;2022-08-01T03:32:16;2.03;;;1.70;;
53285;SDS011;39171;45.550;12.074;2022-08-01T03:38:23;2.30;;;1.77;;
53285;SDS011;39171;45.550;12.074;2022-08-01T03:44:28;2.40;;;1.95;;
53285;SDS011;39171;45.550;12.074;2022-08-01T03:50:34;2.13;;;1.80;;
53285;SDS011;39171;45.550;12.074;2022-08-01T03:56:40;1.98;;;1.70;;
53285;SDS011;39171;45.550;12.074;2022-08-01T04:02:44;2.53;;;1.98;;
53285;SDS011;39171;45.550;12.074;2022-08-01T04:08:50;2.08;;;1.75;;
53285;SDS011;39171;45.550;12.074;2022-08-01T04:14:57;2.17;;;1.65;;
53285;SDS011;39171;45.550;12.074;2022-08-01T04:20:59;2.20;;;1.60;;
53285;SDS011;39171;45.550;12.074;2022-08-01T04:27:01;2.42;;;2.22;;
53285;SDS011;39171;45.550;12.074;2022-08-01T04:33:06;2.17;;;1.90;;
53285;SDS011;39171;45.550;12.074;2022-08-01T04:39:10;2.03;;;1.65;;
53285;SDS011;39171;45.550;12.074;2022-08-01T04:45:13;2.45;;;1.92;;
53285;SDS011;39171;45.550;12.074;2022-08-01T04:51:15;2.15;;;1.88;;
53285;SDS011;39171;45.550;12.074;2022-08-01T04:57:18;1.70;;;1.50;;
53285;SDS011;39171;45.550;12.074;2022-08-01T05:03:20;2.28;;;1.90;;
53285;SDS011;39171;45.550;12.074;2022-08-01T05:09:21;3.40;;;1.70;;
53285;SDS011;39171;45.550;12.074;2022-08-01T05:15:23;2.25;;;1.92;;
53285;SDS011;39171;45.550;12.074;2022-08-01T05:21:25;2.33;;;1.95;;
53285;SDS011;39171;45.550;12.074;2022-08-01T05:27:27;1.95;;;1.60;;
53285;SDS011;39171;45.550;12.074;2022-08-01T05:33:28;2.38;;;1.95;;
53285;SDS011;39171;45.550;12.074;2022-08-01T05:39:30;2.13;;;1.60;;
53285;SDS011;39171;45.550;12.074;2022-08-01T05:45:31;2.33;;;1.90;;
53285;SDS011;39171;45.550;12.074;2022-08-01T05:51:33;2.17;;;1.67;;
53285;SDS011;39171;45.550;12.074;2022-08-01T05:57:34;2.00;;;1.73;;
53285;SDS011;39171;45.550;12.074;2022-08-01T06:03:36;1.80;;;1.48;;
53285;SDS011;39171;45.550;12.074;2022-08-01T06:09:38;1.77;;;1.30;;
53285;SDS011;39171;45.550;12.074;2022-08-01T06:15:39;1.80;;;1.50;;
53285;SDS011;39171;45.550;12.074;2022-08-01T06:21:40;1.50;;;1.35;;
53285;SDS011;39171;45.550;12.074;2022-08-01T06:27:42;2.10;;;1.40;;
53285;SDS011;39171;45.550;12.074;2022-08-01T06:33:44;1.50;;;1.20;;
53285;SDS011;39171;45.550;12.074;2022-08-01T06:39:46;1.50;;;1.30;;
53285;SDS011;39171;45.550;12.074;2022-08-01T06:45:48;1.58;;;1.02;;
53285;SDS011;39171;45.550;12.074;2022-08-01T06:51:50;1.48;;;1.20;;
53285;SDS011;39171;45.550;12.074;2022-08-01T06:57:52;0.95;;;0.77;;
53285;SDS011;39171;45.550;12.074;2022-08-01T07:03:54;1.30;;;1.02;;
53285;SDS011;39171;45.550;12.074;2022-08-01T07:09:55;1.08;;;0.75;;
53285;SDS011;39171;45.550;12.074;2022-08-01T07:15:57;1.08;;;0.93;;
53285;SDS011;39171;45.550;12.074;2022-08-01T07:21:58;0.90;;;0.80;;
53285;SDS011;39171;45.550;12.074;2022-08-01T07:28:00;0.82;;;0.70;;
53285;SDS011;39171;45.550;12.074;2022-08-01T07:34:01;0.70;;;0.60;;
53285;SDS011;39171;45.550;12.074;2022-08-01T07:40:10;0.50;;;0.47;;
53285;SDS011;39171;45.550;12.074;2022-08-01T07:46:12;0.77;;;0.52;;
53285;SDS011;39171;45.550;12.074;2022-08-01T07:52:13;0.70;;;0.60;;
53285;SDS011;39171;45.550;12.074;2022-08-01T07:58:15;0.90;;;0.77;;
53285;SDS011;39171;45.550;12.074;2022-08-01T08:04:17;0.50;;;0.45;;
53285;SDS011;39171;45.550;12.074;2022-08-01T08:10:23;0.60;;;0.50;;
53285;SDS011;39171;45.550;12.074;2022-08-01T08:16:24;0.75;;;0.55;;
53285;SDS011;39171;45.550;12.074;2022-08-01T08:22:27;0.52;;;0.50;;
53285;SDS011;39171;45.550;12.074;2022-08-01T08:28:28;0.95;;;0.70;;
53285;SDS011;39171;45.550;12.074;2022-08-01T08:34:30;0.60;;;0.60;;
53285;SDS011;39171;45.550;12.074;2022-08-01T08:40:31;0.60;;;0.50;;
53285;SDS011;39171;45.550;12.074;2022-08-01T08:46:41;0.60;;;0.50;;
53285;SDS011;39171;45.550;12.074;2022-08-01T08:52:52;0.60;;;0.40;;
53285;SDS011;39171;45.550;12.074;2022-08-01T08:58:55;1.00;;;0.70;;
53285;SDS011;39171;45.550;12.074;2022-08-01T09:04:58;1.02;;;0.70;;
53285;SDS011;39171;45.550;12.074;2022-08-01T09:10:59;1.00;;;0.70;;
53285;SDS011;39171;45.550;12.074;2022-08-01T09:17:07;0.70;;;0.60;;
53285;SDS011;39171;45.550;12.074;2022-08-01T09:23:30;0.88;;;0.65;;
53285;SDS011;39171;45.550;12.074;2022-08-01T09:29:33;0.88;;;0.50;;
53285;SDS011;39171;45.550;12.074;2022-08-01T09:35:34;0.50;;;0.40;;
53285;SDS011;39171;45.550;12.074;2022-08-01T09:41:38;0.90;;;0.50;;
53285;SDS011;39171;45.550;12.074;2022-08-01T09:47:39;1.60;;;0.95;;
53285;SDS011;39171;45.550;12.074;2022-08-01T09:53:43;1.25;;;0.82;;
53285;SDS011;39171;45.550;12.074;2022-08-01T09:59:47;1.52;;;1.00;;
53285;SDS011;39171;45.550;12.074;2022-08-01T10:05:56;1.20;;;0.85;;
53285;SDS011;39171;45.550;12.074;2022-08-01T10:12:03;1.27;;;0.98;;
53285;SDS011;39171;45.550;12.074;2022-08-01T10:18:06;1.35;;;1.13;;
53285;SDS011;39171;45.550;12.074;2022-08-01T10:24:09;1.70;;;1.42;;
53285;SDS011;39171;45.550;12.074;2022-08-01T10:30:13;1.60;;;1.30;;
53285;SDS011;39171;45.550;12.074;2022-08-01T10:36:34;1.80;;;1.40;;
53285;SDS011;39171;45.550;12.074;2022-08-01T10:42:42;2.10;;;1.50;;
53285;SDS011;39171;45.550;12.074;2022-08-01T10:48:49;2.25;;;1.52;;
53285;SDS011;39171;45.550;12.074;2022-08-01T10:55:04;2.83;;;1.77;;
53285;SDS011;39171;45.550;12.074;2022-08-01T11:07:42;1.40;;;1.20;;
53285;SDS011;39171;45.550;12.074;2022-08-01T11:26:13;1.95;;;1.10;;
53285;SDS011;39171;45.550;12.074;2022-08-01T11:32:26;2.20;;;1.23;;
53285;SDS011;39171;45.550;12.074;2022-08-01T11:38:28;1.33;;;1.08;;
53285;SDS011;39171;45.550;12.074;2022-08-01T11:44:30;2.50;;;1.55;;
53285;SDS011;39171;45.550;12.074;2022-08-01T11:50:50;1.98;;;1.30;;
53285;SDS011;39171;45.550;12.074;2022-08-01T11:56:57;10.20;;;3.28;;
53285;SDS011;39171;45.550;12.074;2022-08-01T12:03:01;3.38;;;1.90;;
53285;SDS011;39171;45.550;12.074;2022-08-01T12:09:21;4.55;;;1.63;;
53285;SDS011;39171;45.550;12.074;2022-08-01T12:15:28;2.65;;;1.45;;
53285;SDS011;39171;45.550;12.074;2022-08-01T12:21:35;3.20;;;1.30;;
53285;SDS011;39171;45.550;12.074;2022-08-01T12:27:38;1.70;;;1.20;;
53285;SDS011;39171;45.550;12.074;2022-08-01T12:33:41;3.55;;;1.35;;
53285;SDS011;39171;45.550;12.074;2022-08-01T12:39:42;2.80;;;1.60;;
53285;SDS011;39171;45.550;12.074;2022-08-01T12:45:45;4.43;;;0.95;;
53285;SDS011;39171;45.550;12.074;2022-08-01T12:51:49;1.75;;;1.13;;
53285;SDS011;39171;45.550;12.074;2022-08-01T12:58:05;5.15;;;2.05;;
53285;SDS011;39171;45.550;12.074;2022-08-01T13:04:08;2.47;;;1.20;;
53285;SDS011;39171;45.550;12.074;2022-08-01T13:10:10;2.42;;;1.33;;
53285;SDS011;39171;45.550;12.074;2022-08-01T13:16:13;2.03;;;1.20;;
53285;SDS011;39171;45.550;12.074;2022-08-01T13:22:18;2.05;;;1.42;;
53285;SDS011;39171;45.550;12.074;2022-08-01T13:28:21;4.20;;;2.15;;
53285;SDS011;39171;45.550;12.074;2022-08-01T13:34:33;2.00;;;1.30;;
53285;SDS011;39171;45.550;12.074;2022-08-01T13:40:35;3.25;;;1.48;;
53285;SDS011;39171;45.550;12.074;2022-08-01T13:46:37;2.00;;;1.17;;
53285;SDS011;39171;45.550;12.074;2022-08-01T13:52:40;2.00;;;1.40;;
53285;SDS011;39171;45.550;12.074;2022-08-01T13:58:41;1.80;;;1.20;;
53285;SDS011;39171;45.550;12.074;2022-08-01T14:04:43;2.50;;;2.03;;
53285;SDS011;39171;45.550;12.074;2022-08-01T14:10:44;2.45;;;1.50;;
53285;SDS011;39171;45.550;12.074;2022-08-01T14:16:46;2.25;;;1.17;;
53285;SDS011;39171;45.550;12.074;2022-08-01T14:22:47;1.73;;;1.20;;
53285;SDS011;39171;45.550;12.074;2022-08-01T14:28:49;2.28;;;1.00;;
53285;SDS011;39171;45.550;12.074;2022-08-01T14:34:51;1.52;;;0.98;;
53285;SDS011;39171;45.550;12.074;2022-08-01T14:40:53;1.77;;;1.00;;
53285;SDS011;39171;45.550;12.074;2022-08-01T14:46:54;1.17;;;0.80;;
53285;SDS011;39171;45.550;12.074;2022-08-01T14:52:56;2.70;;;1.02;;
53285;SDS011;39171;45.550;12.074;2022-08-01T14:58:58;3.30;;;1.73;;
53285;SDS011;39171;45.550;12.074;2022-08-01T15:05:03;2.15;;;1.35;;
53285;SDS011;39171;45.550;12.074;2022-08-01T15:11:05;2.60;;;1.77;;
53285;SDS011;39171;45.550;12.074;2022-08-01T15:17:08;4.32;;;1.60;;
53285;SDS011;39171;45.550;12.074;2022-08-01T15:23:10;2.78;;;1.42;;
53285;SDS011;39171;45.550;12.074;2022-08-01T15:29:12;2.78;;;1.67;;
53285;SDS011;39171;45.550;12.074;2022-08-01T15:35:14;1.80;;;1.38;;
53285;SDS011;39171;45.550;12.074;2022-08-01T15:41:15;1.30;;;1.10;;
53285;SDS011;39171;45.550;12.074;2022-08-01T15:47:17;1.65;;;1.02;;
53285;SDS011;39171;45.550;12.074;2022-08-01T15:53:18;1.40;;;1.00;;
53285;SDS011;39171;45.550;12.074;2022-08-01T15:59:20;1.60;;;1.00;;
53285;SDS011;39171;45.550;12.074;2022-08-01T16:05:22;1.45;;;0.90;;
53285;SDS011;39171;45.550;12.074;2022-08-01T16:11:23;1.10;;;0.80;;
53285;SDS011;39171;45.550;12.074;2022-08-01T16:17:27;1.35;;;0.90;;
53285;SDS011;39171;45.550;12.074;2022-08-01T16:23:29;2.13;;;1.38;;
53285;SDS011;39171;45.550;12.074;2022-08-01T16:29:31;1.73;;;1.10;;
53285;SDS011;39171;45.550;12.074;2022-08-01T16:35:32;2.17;;;1.00;;
53285;SDS011;39171;45.550;12.074;2022-08-01T16:41:34;2.60;;;1.70;;
53285;SDS011;39171;45.550;12.074;2022-08-01T16:47:35;1.75;;;1.05;;
53285;SDS011;39171;45.550;12.074;2022-08-01T16:53:36;1.90;;;1.00;;
53285;SDS011;39171;45.550;12.074;2022-08-01T16:59:38;1.63;;;1.08;;
53285;SDS011;39171;45.550;12.074;2022-08-01T17:05:39;1.35;;;0.80;;
53285;SDS011;39171;45.550;12.074;2022-08-01T17:11:41;2.33;;;0.80;;
53285;SDS011;39171;45.550;12.074;2022-08-01T17:17:42;1.48;;;0.90;;
53285;SDS011;39171;45.550;12.074;2022-08-01T17:23:44;1.92;;;0.80;;
53285;SDS011;39171;45.550;12.074;2022-08-01T17:29:46;0.85;;;0.60;;
53285;SDS011;39171;45.550;12.074;2022-08-01T17:35:47;1.10;;;0.60;;
53285;SDS011;39171;45.550;12.074;2022-08-01T17:41:48;1.10;;;0.60;;
53285;SDS011;39171;45.550;12.074;2022-08-01T17:47:50;1.50;;;0.80;;
53285;SDS011;39171;45.550;12.074;2022-08-01T17:53:51;1.60;;;1.02;;
53285;SDS011;39171;45.550;12.074;2022-08-01T17:59:53;1.33;;;1.00;;
53285;SDS011;39171;45.550;12.074;2022-08-01T18:05:55;1.15;;;0.80;;
53285;SDS011;39171;45.550;12.074;2022-08-01T18:11:59;2.00;;;0.80;;
53285;SDS011;39171;45.550;12.074;2022-08-01T18:18:00;1.45;;;0.70;;
53285;SDS011;39171;45.550;12.074;2022-08-01T18:24:02;1.35;;;0.73;;
53285;SDS011;39171;45.550;12.074;2022-08-01T18:30:06;1.13;;;0.60;;
53285;SDS011;39171;45.550;12.074;2022-08-01T18:36:10;1.15;;;0.68;;
53285;SDS011;39171;45.550;12.074;2022-08-01T18:42:12;1.10;;;0.70;;
53285;SDS011;39171;45.550;12.074;2022-08-01T18:48:14;0.88;;;0.55;;
53285;SDS011;39171;45.550;12.074;2022-08-01T18:54:16;0.70;;;0.57;;
53285;SDS011;39171;45.550;12.074;2022-08-01T19:00:18;0.68;;;0.40;;
53285;SDS011;39171;45.550;12.074;2022-08-01T19:06:19;0.50;;;0.43;;
53285;SDS011;39171;45.550;12.074;2022-08-01T19:12:21;0.35;;;0.30;;
53285;SDS011;39171;45.550;12.074;2022-08-01T19:18:22;1.15;;;0.43;;
53285;SDS011;39171;45.550;12.074;2022-08-01T19:24:25;0.43;;;0.30;;
53285;SDS011;39171;45.550;12.074;2022-08-01T19:30:27;0.73;;;0.40;;
53285;SDS011;39171;45.550;12.074;2022-08-01T19:36:36;0.50;;;0.30;;
53285;SDS011;39171;45.550;12.074;2022-08-01T19:42:38;0.20;;;0.20;;
53285;SDS011;39171;45.550;12.074;2022-08-01T19:48:41;0.43;;;0.30;;
53285;SDS011;39171;45.550;12.074;2022-08-01T19:54:43;0.20;;;0.20;;
53285;SDS011;39171;45.550;12.074;2022-08-01T20:00:47;0.28;;;0.20;;
53285;SDS011;39171;45.550;12.074;2022-08-01T20:06:50;0.55;;;0.32;;
53285;SDS011;39171;45.550;12.074;2022-08-01T20:12:52;0.40;;;0.20;;
53285;SDS011;39171;45.550;12.074;2022-08-01T20:18:57;0.30;;;0.20;;
53285;SDS011;39171;45.550;12.074;2022-08-01T20:24:59;0.38;;;0.30;;
53285;SDS011;39171;45.550;12.074;2022-08-01T20:31:01;0.20;;;0.20;;
53285;SDS011;39171;45.550;12.074;2022-08-01T20:37:06;0.50;;;0.20;;
53285;SDS011;39171;45.550;12.074;2022-08-01T20:43:11;0.20;;;0.20;;
53285;SDS011;39171;45.550;12.074;2022-08-01T20:49:13;0.30;;;0.20;;
53285;SDS011;39171;45.550;12.074;2022-08-01T20:55:15;0.45;;;0.40;;
53285;SDS011;39171;45.550;12.074;2022-08-01T21:01:19;0.20;;;0.20;;
53285;SDS011;39171;45.550;12.074;2022-08-01T21:08:01;0.28;;;0.20;;
53285;SDS011;39171;45.550;12.074;2022-08-01T21:14:02;0.20;;;0.20;;
53285;SDS011;39171;45.550;12.074;2022-08-01T21:20:10;0.40;;;0.30;;
53285;SDS011;39171;45.550;12.074;2022-08-01T21:26:13;0.22;;;0.20;;
53285;SDS011;39171;45.550;12.074;2022-08-01T21:32:14;0.30;;;0.30;;
53285;SDS011;39171;45.550;12.074;2022-08-01T21:38:17;0.40;;;0.20;;
53285;SDS011;39171;45.550;12.074;2022-08-01T21:44:19;0.30;;;0.20;;
53285;SDS011;39171;45.550;12.074;2022-08-01T21:50:25;0.43;;;0.30;;
53285;SDS011;39171;45.550;12.074;2022-08-01T22:03:10;0.50;;;0.35;;
53285;SDS011;39171;45.550;12.074;2022-08-01T22:09:22;0.45;;;0.30;;
53285;SDS011;39171;45.550;12.074;2022-08-01T22:15:25;0.40;;;0.30;;
53285;SDS011;39171;45.550;12.074;2022-08-01T22:21:29;0.55;;;0.22;;
53285;SDS011;39171;45.550;12.074;2022-08-01T22:27:31;0.60;;;0.32;;
53285;SDS011;39171;45.550;12.074;2022-08-01T22:33:33;0.40;;;0.20;;
53285;SDS011;39171;45.550;12.074;2022-08-01T22:39:36;0.20;;;0.20;;
53285;SDS011;39171;45.550;12.074;2022-08-01T23:04:02;0.40;;;0.30;;
53285;SDS011;39171;45.550;12.074;2022-08-01T23:10:05;0.45;;;0.30;;
53285;SDS011;39171;45.550;12.074;2022-08-01T23:16:07;0.60;;;0.32;;
53285;SDS011;39171;45.550;12.074;2022-08-01T23:22:10;0.40;;;0.30;;
53285;SDS011;39171;45.550;12.074;2022-08-01T23:28:13;0.75;;;0.50;;
53285;SDS011;39171;45.550;12.074;2022-08-01T23:34:16;0.30;;;0.30;;
53285;SDS011;39171;45.550;12.074;2022-08-01T23:40:17;0.68;;;0.50;;
53285;SDS011;39171;45.550;12.074;2022-08-01T23:46:19;0.73;;;0.57;;
53285;SDS011;39171;45.550;12.074;2022-08-01T23:52:21;0.93;;;0.40;;
53285;SDS011;39171;45.550;12.074;2022-08-01T23:58:22;1.02;;;0.65;;
